Airfield :
LOGIN :

Register | Disclaimer

   EN    FR    IT 

 










Legend :    VFR   Marginal VFR   IFR   Intensive IFR   Very Intensive IFR
Visi :
Ceiling :
>= 8 km
>= 3000ft
5 to 8 km
1000 to 3000 ft
1500m to 5 km
500 to 1000 ft
800 to 1500m
200 to 500 ft
< 800m
< 200 ft
Symbols :   Thunderstorms  Fog  Heavy snow  Heavy precipitations  Wind > 20 kt
SIGMETs :     Misc.  Thunderstorms  Icing  Turbulence  Mountain Waves  Volcanic Ashes







- Airport Elevation : 1302 ft
- IATA code : GNB
- Download approach charts


LFLS - Grenoble / St. Geoirs

CURRENT METAR :
  • 220800Z AUTO 34006KT 320V020 9999 SCT014 14/10 Q1025 NOSIG

EXPIRED METARs :
  • 220730Z AUTO 34004KT 300V010 9999 BKN015 BKN230 13/09 Q1024 NOSIG
  • 220700Z AUTO 04003KT 350V080 9999 BKN014 13/09 Q1024 BECMG NSC
  • 220630Z AUTO VRB02KT 9999 BKN015 BKN230 11/09 Q1025 NOSIG
  • 220600Z AUTO 26003KT 230V300 9999 BKN014 BKN240 10/08 Q1024 TEMPO 3000 BR BECMG NSC

TAF TAF LFLS
Valid from the 22 at 09:00 until the 23 at 09:00 UTC


220800Z 2209/2309 36008KT CAVOK
PROB30
TEMPO 2209/2210 BKN012
BECMG 2217/2219 09005KT
BECMG 2221/2224 BKN050
ATIS : +33 4 76 65 55 89
No reported NOTAMs for that airfield.



MET'MAP, your aeronautical weather chart ! - Copyright ORBIFLY December 2007 - Disclaimer

ORBIFLY MET'MAP TEAM :

Programming & Development : Alexandra Zaïnal
Concept & Development : Baudouin d'Aumeries
Co-Development & Prog : Marc-Olivier Méhu
Technical & hardware support : Manuel Goepfert

Contact : metmap@orbifly.com




SOURCES & CREDITS :

   NOAA